Portada
METAR-TAF:

METAR-TAF

Aeroports :

Pohnpei, Micronèsia

latitud: 06-59N, longitud: 158-12E, altitud: 2 m

Observació

L'informe es va fer fa 9 hores i 50 minuts, a les 04:50 UTC
Vent 10 kt del Est/Nord-Est
Temperatura 30°C
Humitat 79%
Pressió 1009 hPa
Visibilitat: 24.1 km
Cel ennuvolat a una alçada de 1800 ft, Cumulus congestus.
Cel cobert a una alçada de 30000 ft

METAR: PTPN 230450Z 06010KT 15SM BKN018TCU OVC300 30/26 A2980 RMK TCU ALQDS LAST

Hora: 01:40 (14:40 UTC)

Pronòstic

L'informe es va fer fa 15 hores i 3 minuts, a les 23:37 UTC
Pronòstic vàlid del 23 a les 00 UTC al 23 a les 24 UTC
Vent 13 kt del Est/Nord-Est
Visibilitat: 10 km
Núvols disperses a una alçada de 1800 ft
Núvols disperses a una alçada de 5000 ft
xàfecs en les proximitats
Temporalment
l' 23 a les 00 UTC al 23 a les 04 UTC
Cel ennuvolat a una alçada de 1600 ft
xàfecs de pluja

TAF: PTPN 222337Z 2300/2324 07013KT P6SM VCSH SCT018 SCT050 TEMPO 2300/2304 -SHRA BKN016

Observacions i pronòstics meteorològics de més de 4000 aeroports (METAR i TAF).

Les estacions disponibles són els punts grocs i vermells al mapa.

Posi el ratolí al punt desitjat per veure el nom de l'estació.

Feu clic per veure les observacions i els pronòstics meteorològics.

Per canviar el mapa: feu clic els botons verds amb una creu de color negre per apropar; al botó verd amb un guió per allunyar la imatge; o en les fletxes verdes per a mapes adjacents.


METAR-TAF: